sensor_id;sensor_type;location;lat;lon;timestamp;pressure;altitude;pressure_sealevel;temperature;humidity
41632;BME280;37452;51.938;4.624;2022-12-29T00:01:55;76093.94;;;-142.75;100.00
41632;BME280;37452;51.938;4.624;2022-12-29T00:04:21;76078.19;;;-142.75;100.00
41632;BME280;37452;51.938;4.624;2022-12-29T00:06:46;76062.47;;;-142.75;100.00
41632;BME280;37452;51.938;4.624;2022-12-29T00:09:14;76048.69;;;-142.75;100.00
41632;BME280;37452;51.938;4.624;2022-12-29T00:11:41;76046.72;;;-142.75;100.00
41632;BME280;37452;51.938;4.624;2022-12-29T00:14:08;76048.69;;;-142.75;100.00
41632;BME280;37452;51.938;4.624;2022-12-29T00:16:52;76058.53;;;-142.75;100.00
41632;BME280;37452;51.938;4.624;2022-12-29T00:19:17;76044.75;;;-142.75;100.00
41632;BME280;37452;51.938;4.624;2022-12-29T00:22:02;76048.69;;;-142.75;100.00
41632;BME280;37452;51.938;4.624;2022-12-29T00:24:46;76048.69;;;-142.75;100.00
41632;BME280;37452;51.938;4.624;2022-12-29T00:27:28;76038.84;;;-142.75;100.00
41632;BME280;37452;51.938;4.624;2022-12-29T00:30:14;76034.91;;;-142.75;100.00
41632;BME280;37452;51.938;4.624;2022-12-29T00:32:58;76042.78;;;-142.75;100.00
41632;BME280;37452;51.938;4.624;2022-12-29T00:35:51;76040.81;;;-142.75;100.00
41632;BME280;37452;51.938;4.624;2022-12-29T00:38:18;76056.56;;;-142.75;100.00
41632;BME280;37452;51.938;4.624;2022-12-29T00:41:02;76048.69;;;-142.75;100.00
41632;BME280;37452;51.938;4.624;2022-12-29T00:44:00;76058.53;;;-142.75;100.00
41632;BME280;37452;51.938;4.624;2022-12-29T00:46:33;76058.53;;;-142.75;100.00
41632;BME280;37452;51.938;4.624;2022-12-29T00:48:59;76058.53;;;-142.75;100.00
41632;BME280;37452;51.938;4.624;2022-12-29T00:51:44;76064.44;;;-142.75;100.00
41632;BME280;37452;51.938;4.624;2022-12-29T00:54:10;76093.94;;;-142.75;100.00
41632;BME280;37452;51.938;4.624;2022-12-29T00:56:35;76117.56;;;-142.75;100.00
41632;BME280;37452;51.938;4.624;2022-12-29T00:59:06;76137.25;;;-142.75;100.00
41632;BME280;37452;51.938;4.624;2022-12-29T01:01:32;76158.91;;;-142.75;100.00
41632;BME280;37452;51.938;4.624;2022-12-29T01:03:58;76158.91;;;-142.75;100.00
41632;BME280;37452;51.938;4.624;2022-12-29T01:06:24;76156.94;;;-142.75;100.00
41632;BME280;37452;51.938;4.624;2022-12-29T01:08:50;76160.88;;;-142.75;100.00
41632;BME280;37452;51.938;4.624;2022-12-29T01:11:36;76184.50;;;-142.75;100.00
41632;BME280;37452;51.938;4.624;2022-12-29T01:14:02;76162.84;;;-142.75;100.00
41632;BME280;37452;51.938;4.624;2022-12-29T01:16:27;76162.84;;;-142.75;100.00
41632;BME280;37452;51.938;4.624;2022-12-29T01:18:53;76172.69;;;-142.75;100.00
41632;BME280;37452;51.938;4.624;2022-12-29T01:21:19;76164.81;;;-142.75;100.00
41632;BME280;37452;51.938;4.624;2022-12-29T01:23:44;76156.94;;;-142.75;100.00
41632;BME280;37452;51.938;4.624;2022-12-29T01:26:14;76162.84;;;-142.75;100.00
41632;BME280;37452;51.938;4.624;2022-12-29T01:28:41;76151.03;;;-142.75;100.00
41632;BME280;37452;51.938;4.624;2022-12-29T01:31:10;76139.22;;;-142.75;100.00
41632;BME280;37452;51.938;4.624;2022-12-29T01:33:37;76133.31;;;-142.75;100.00
41632;BME280;37452;51.938;4.624;2022-12-29T01:36:04;76137.25;;;-142.75;100.00
41632;BME280;37452;51.938;4.624;2022-12-29T01:38:31;76129.38;;;-142.75;100.00
41632;BME280;37452;51.938;4.624;2022-12-29T01:40:57;76127.41;;;-142.75;100.00
41632;BME280;37452;51.938;4.624;2022-12-29T01:43:39;76113.63;;;-142.75;100.00
41632;BME280;37452;51.938;4.624;2022-12-29T01:46:30;76111.66;;;-142.75;100.00
41632;BME280;37452;51.938;4.624;2022-12-29T01:49:40;76113.63;;;-142.75;100.00
41632;BME280;37452;51.938;4.624;2022-12-29T01:51:53;76125.44;;;-142.75;100.00
41632;BME280;37452;51.938;4.624;2022-12-29T01:54:42;76125.44;;;-142.75;100.00
41632;BME280;37452;51.938;4.624;2022-12-29T01:57:13;76123.47;;;-142.75;100.00
41632;BME280;37452;51.938;4.624;2022-12-29T01:59:46;76137.25;;;-142.75;100.00
41632;BME280;37452;51.938;4.624;2022-12-29T02:02:13;76129.38;;;-142.75;100.00
41632;BME280;37452;51.938;4.624;2022-12-29T02:04:41;76143.16;;;-142.75;100.00
41632;BME280;37452;51.938;4.624;2022-12-29T02:07:22;76141.19;;;-142.75;100.00
41632;BME280;37452;51.938;4.624;2022-12-29T02:09:50;76149.06;;;-142.75;100.00
41632;BME280;37452;51.938;4.624;2022-12-29T02:12:19;76149.06;;;-142.75;100.00
41632;BME280;37452;51.938;4.624;2022-12-29T02:14:47;76141.19;;;-142.75;100.00
41632;BME280;37452;51.938;4.624;2022-12-29T02:27:01;76141.19;;;-142.75;100.00
41632;BME280;37452;51.938;4.624;2022-12-29T02:37:06;76137.25;;;-142.75;100.00
41632;BME280;37452;51.938;4.624;2022-12-29T02:42:55;76131.34;;;-142.75;100.00
41632;BME280;37452;51.938;4.624;2022-12-29T02:45:36;76129.38;;;-142.75;100.00
41632;BME280;37452;51.938;4.624;2022-12-29T02:48:19;76133.31;;;-142.75;100.00
41632;BME280;37452;51.938;4.624;2022-12-29T02:50:57;76145.13;;;-142.75;100.00
41632;BME280;37452;51.938;4.624;2022-12-29T02:53:24;76123.47;;;-142.75;100.00
41632;BME280;37452;51.938;4.624;2022-12-29T02:56:21;76137.25;;;-142.75;100.00
41632;BME280;37452;51.938;4.624;2022-12-29T02:58:46;76133.31;;;-142.75;100.00
41632;BME280;37452;51.938;4.624;2022-12-29T03:09:33;76129.38;;;-142.75;100.00
41632;BME280;37452;51.938;4.624;2022-12-29T03:12:12;76113.63;;;-142.75;100.00
41632;BME280;37452;51.938;4.624;2022-12-29T03:14:47;76115.59;;;-142.75;100.00
41632;BME280;37452;51.938;4.624;2022-12-29T03:20:08;76113.63;;;-142.75;100.00
41632;BME280;37452;51.938;4.624;2022-12-29T03:22:39;76113.63;;;-142.75;100.00
41632;BME280;37452;51.938;4.624;2022-12-29T03:25:18;76101.81;;;-142.75;100.00
41632;BME280;37452;51.938;4.624;2022-12-29T03:27:55;76131.34;;;-142.75;100.00
41632;BME280;37452;51.938;4.624;2022-12-29T03:30:22;76125.44;;;-142.75;100.00
41632;BME280;37452;51.938;4.624;2022-12-29T03:32:54;76137.25;;;-142.75;100.00
41632;BME280;37452;51.938;4.624;2022-12-29T03:35:25;76131.34;;;-142.75;100.00
41632;BME280;37452;51.938;4.624;2022-12-29T03:40:27;76145.13;;;-142.75;100.00
41632;BME280;37452;51.938;4.624;2022-12-29T03:42:54;76154.97;;;-142.75;100.00
41632;BME280;37452;51.938;4.624;2022-12-29T03:45:20;76154.97;;;-142.75;100.00
41632;BME280;37452;51.938;4.624;2022-12-29T03:47:46;76160.88;;;-142.75;100.00
41632;BME280;37452;51.938;4.624;2022-12-29T03:50:12;76156.94;;;-142.75;100.00
41632;BME280;37452;51.938;4.624;2022-12-29T03:52:38;76145.13;;;-142.75;100.00
41632;BME280;37452;51.938;4.624;2022-12-29T03:55:04;76149.06;;;-142.75;100.00
41632;BME280;37452;51.938;4.624;2022-12-29T03:57:30;76158.91;;;-142.75;100.00
41632;BME280;37452;51.938;4.624;2022-12-29T03:59:55;76145.13;;;-142.75;100.00
41632;BME280;37452;51.938;4.624;2022-12-29T04:02:21;76141.19;;;-142.75;100.00
41632;BME280;37452;51.938;4.624;2022-12-29T04:04:46;76137.25;;;-142.75;100.00
41632;BME280;37452;51.938;4.624;2022-12-29T04:07:12;76133.31;;;-142.75;100.00
41632;BME280;37452;51.938;4.624;2022-12-29T04:09:37;76137.25;;;-142.75;100.00
41632;BME280;37452;51.938;4.624;2022-12-29T04:12:03;76145.13;;;-142.75;100.00
41632;BME280;37452;51.938;4.624;2022-12-29T04:14:28;76137.25;;;-142.75;100.00
41632;BME280;37452;51.938;4.624;2022-12-29T04:16:54;76168.75;;;-142.75;100.00
41632;BME280;37452;51.938;4.624;2022-12-29T04:19:19;76172.69;;;-142.75;100.00
41632;BME280;37452;51.938;4.624;2022-12-29T04:21:45;76168.75;;;-142.75;100.00
41632;BME280;37452;51.938;4.624;2022-12-29T04:24:10;76174.66;;;-142.75;100.00
41632;BME280;37452;51.938;4.624;2022-12-29T04:26:38;76194.34;;;-142.75;100.00
41632;BME280;37452;51.938;4.624;2022-12-29T04:29:03;76217.94;;;-142.75;100.00
41632;BME280;37452;51.938;4.624;2022-12-29T04:31:29;76221.88;;;-142.75;100.00
41632;BME280;37452;51.938;4.624;2022-12-29T04:33:55;76210.06;;;-142.75;100.00
41632;BME280;37452;51.938;4.624;2022-12-29T04:36:22;76239.59;;;-142.75;100.00
41632;BME280;37452;51.938;4.624;2022-12-29T04:38:48;76243.53;;;-142.75;100.00
41632;BME280;37452;51.938;4.624;2022-12-29T04:41:13;76227.78;;;-142.75;100.00
41632;BME280;37452;51.938;4.624;2022-12-29T04:43:39;76251.41;;;-142.75;100.00
41632;BME280;37452;51.938;4.624;2022-12-29T04:46:05;76251.41;;;-142.75;100.00
41632;BME280;37452;51.938;4.624;2022-12-29T04:48:30;76243.53;;;-142.75;100.00
41632;BME280;37452;51.938;4.624;2022-12-29T04:50:56;76253.38;;;-142.75;100.00
41632;BME280;37452;51.938;4.624;2022-12-29T04:53:21;76243.53;;;-142.75;100.00
41632;BME280;37452;51.938;4.624;2022-12-29T04:55:51;76251.41;;;-142.75;100.00
41632;BME280;37452;51.938;4.624;2022-12-29T04:58:18;76245.50;;;-142.75;100.00
41632;BME280;37452;51.938;4.624;2022-12-29T05:00:43;76243.53;;;-142.75;100.00
41632;BME280;37452;51.938;4.624;2022-12-29T05:03:09;76243.53;;;-142.75;100.00
41632;BME280;37452;51.938;4.624;2022-12-29T05:05:34;76229.75;;;-142.75;100.00
41632;BME280;37452;51.938;4.624;2022-12-29T05:08:00;76239.59;;;-142.75;100.00
41632;BME280;37452;51.938;4.624;2022-12-29T05:10:25;76235.66;;;-142.75;100.00
41632;BME280;37452;51.938;4.624;2022-12-29T05:12:51;76239.59;;;-142.75;100.00
41632;BME280;37452;51.938;4.624;2022-12-29T05:15:16;76237.63;;;-142.75;100.00
41632;BME280;37452;51.938;4.624;2022-12-29T05:17:42;76243.53;;;-142.75;100.00
41632;BME280;37452;51.938;4.624;2022-12-29T05:20:08;76259.28;;;-142.75;100.00
41632;BME280;37452;51.938;4.624;2022-12-29T05:22:33;76247.47;;;-142.75;100.00
41632;BME280;37452;51.938;4.624;2022-12-29T05:24:59;76255.34;;;-142.75;100.00
41632;BME280;37452;51.938;4.624;2022-12-29T05:27:25;76271.09;;;-142.75;100.00
41632;BME280;37452;51.938;4.624;2022-12-29T05:29:50;76253.38;;;-142.75;100.00
41632;BME280;37452;51.938;4.624;2022-12-29T05:32:15;76255.34;;;-142.75;100.00
41632;BME280;37452;51.938;4.624;2022-12-29T05:34:41;76259.28;;;-142.75;100.00
41632;BME280;37452;51.938;4.624;2022-12-29T05:37:06;76263.22;;;-142.75;100.00
41632;BME280;37452;51.938;4.624;2022-12-29T05:39:32;76273.06;;;-142.75;100.00
41632;BME280;37452;51.938;4.624;2022-12-29T05:41:57;76284.88;;;-142.75;100.00
41632;BME280;37452;51.938;4.624;2022-12-29T05:44:23;76292.75;;;-142.75;100.00
41632;BME280;37452;51.938;4.624;2022-12-29T05:46:48;76288.81;;;-142.75;100.00
41632;BME280;37452;51.938;4.624;2022-12-29T05:49:15;76286.84;;;-142.75;100.00
41632;BME280;37452;51.938;4.624;2022-12-29T05:51:41;76286.84;;;-142.75;100.00
41632;BME280;37452;51.938;4.624;2022-12-29T05:54:06;76302.59;;;-142.75;100.00
41632;BME280;37452;51.938;4.624;2022-12-29T05:56:32;76306.53;;;-142.75;100.00
41632;BME280;37452;51.938;4.624;2022-12-29T05:58:57;76302.59;;;-142.75;100.00
41632;BME280;37452;51.938;4.624;2022-12-29T06:01:23;76310.47;;;-142.75;100.00
41632;BME280;37452;51.938;4.624;2022-12-29T06:03:48;76332.13;;;-142.75;100.00
41632;BME280;37452;51.938;4.624;2022-12-29T06:06:14;76334.09;;;-142.75;100.00
41632;BME280;37452;51.938;4.624;2022-12-29T06:08:39;76347.84;;;-142.75;100.00
41632;BME280;37452;51.938;4.624;2022-12-29T06:11:05;76334.09;;;-142.75;100.00
41632;BME280;37452;51.938;4.624;2022-12-29T06:13:30;76332.13;;;-142.75;100.00
41632;BME280;37452;51.938;4.624;2022-12-29T06:15:56;76330.16;;;-142.75;100.00
41632;BME280;37452;51.938;4.624;2022-12-29T06:18:22;76326.22;;;-142.75;100.00
41632;BME280;37452;51.938;4.624;2022-12-29T06:20:48;76326.22;;;-142.75;100.00
41632;BME280;37452;51.938;4.624;2022-12-29T06:23:13;76332.13;;;-142.75;100.00
41632;BME280;37452;51.938;4.624;2022-12-29T06:25:39;76310.47;;;-142.75;100.00
41632;BME280;37452;51.938;4.624;2022-12-29T06:28:04;76310.47;;;-142.75;100.00
41632;BME280;37452;51.938;4.624;2022-12-29T06:30:31;76324.25;;;-142.75;100.00
41632;BME280;37452;51.938;4.624;2022-12-29T06:32:58;76322.28;;;-142.75;100.00
41632;BME280;37452;51.938;4.624;2022-12-29T06:35:23;76314.41;;;-142.75;100.00
41632;BME280;37452;51.938;4.624;2022-12-29T06:40:17;76310.47;;;-142.75;100.00
41632;BME280;37452;51.938;4.624;2022-12-29T06:42:43;76324.25;;;-142.75;100.00
41632;BME280;37452;51.938;4.624;2022-12-29T06:45:10;76326.22;;;-142.75;100.00
41632;BME280;37452;51.938;4.624;2022-12-29T06:47:35;76340.00;;;-142.75;100.00
41632;BME280;37452;51.938;4.624;2022-12-29T06:50:02;76334.09;;;-142.75;100.00
41632;BME280;37452;51.938;4.624;2022-12-29T06:52:27;76351.81;;;-142.75;100.00
41632;BME280;37452;51.938;4.624;2022-12-29T06:54:54;76355.72;;;-142.75;100.00
41632;BME280;37452;51.938;4.624;2022-12-29T06:57:20;76359.66;;;-142.75;100.00
41632;BME280;37452;51.938;4.624;2022-12-29T06:59:46;76375.41;;;-142.75;100.00
41632;BME280;37452;51.938;4.624;2022-12-29T07:02:12;76377.38;;;-142.75;100.00
41632;BME280;37452;51.938;4.624;2022-12-29T07:04:39;76395.09;;;-142.75;100.00
41632;BME280;37452;51.938;4.624;2022-12-29T07:07:04;76402.97;;;-142.75;100.00
41632;BME280;37452;51.938;4.624;2022-12-29T07:09:30;76399.03;;;-142.75;100.00
41632;BME280;37452;51.938;4.624;2022-12-29T07:11:55;76397.06;;;-142.75;100.00
41632;BME280;37452;51.938;4.624;2022-12-29T07:14:21;76395.09;;;-142.75;100.00
41632;BME280;37452;51.938;4.624;2022-12-29T07:16:46;76401.00;;;-142.75;100.00
41632;BME280;37452;51.938;4.624;2022-12-29T07:19:12;76412.81;;;-142.75;100.00
41632;BME280;37452;51.938;4.624;2022-12-29T07:21:37;76389.19;;;-142.75;100.00
41632;BME280;37452;51.938;4.624;2022-12-29T07:24:03;76385.25;;;-142.75;100.00
41632;BME280;37452;51.938;4.624;2022-12-29T07:26:29;76379.34;;;-142.75;100.00
41632;BME280;37452;51.938;4.624;2022-12-29T07:28:54;76387.22;;;-142.75;100.00
41632;BME280;37452;51.938;4.624;2022-12-29T07:31:22;76371.47;;;-142.75;100.00
41632;BME280;37452;51.938;4.624;2022-12-29T07:33:48;76373.44;;;-142.75;100.00
41632;BME280;37452;51.938;4.624;2022-12-29T07:36:15;76373.44;;;-142.75;100.00
41632;BME280;37452;51.938;4.624;2022-12-29T07:38:42;76361.63;;;-142.75;100.00
41632;BME280;37452;51.938;4.624;2022-12-29T07:41:07;76377.38;;;-142.75;100.00
41632;BME280;37452;51.938;4.624;2022-12-29T07:43:33;76351.81;;;-142.75;100.00
41632;BME280;37452;51.938;4.624;2022-12-29T07:45:58;76357.69;;;-142.75;100.00
41632;BME280;37452;51.938;4.624;2022-12-29T07:48:24;76338.03;;;-142.75;100.00
41632;BME280;37452;51.938;4.624;2022-12-29T07:50:50;76345.91;;;-142.75;100.00
41632;BME280;37452;51.938;4.624;2022-12-29T07:53:16;76341.97;;;-142.75;100.00
41632;BME280;37452;51.938;4.624;2022-12-29T07:55:42;76322.28;;;-142.75;100.00
41632;BME280;37452;51.938;4.624;2022-12-29T07:58:07;76318.34;;;-142.75;100.00
41632;BME280;37452;51.938;4.624;2022-12-29T08:00:33;76318.34;;;-142.75;100.00
41632;BME280;37452;51.938;4.624;2022-12-29T08:02:59;76314.41;;;-142.75;100.00
41632;BME280;37452;51.938;4.624;2022-12-29T08:05:24;76310.47;;;-142.75;100.00
41632;BME280;37452;51.938;4.624;2022-12-29T08:07:50;76304.56;;;-142.75;100.00
41632;BME280;37452;51.938;4.624;2022-12-29T08:10:15;76320.31;;;-142.75;100.00
41632;BME280;37452;51.938;4.624;2022-12-29T08:12:42;76302.59;;;-142.75;100.00
41632;BME280;37452;51.938;4.624;2022-12-29T08:15:09;76312.44;;;-142.75;100.00
41632;BME280;37452;51.938;4.624;2022-12-29T08:17:35;76298.66;;;-142.75;100.00
41632;BME280;37452;51.938;4.624;2022-12-29T08:20:01;76306.53;;;-142.75;100.00
41632;BME280;37452;51.938;4.624;2022-12-29T08:22:27;76316.38;;;-142.75;100.00
41632;BME280;37452;51.938;4.624;2022-12-29T08:24:52;76322.28;;;-142.75;100.00
41632;BME280;37452;51.938;4.624;2022-12-29T08:27:18;76330.16;;;-142.75;100.00
41632;BME280;37452;51.938;4.624;2022-12-29T08:29:44;76361.63;;;-142.75;100.00
41632;BME280;37452;51.938;4.624;2022-12-29T08:32:10;76347.84;;;-142.75;100.00
41632;BME280;37452;51.938;4.624;2022-12-29T08:34:35;76363.59;;;-142.75;100.00
41632;BME280;37452;51.938;4.624;2022-12-29T08:37:01;76373.44;;;-142.75;100.00
41632;BME280;37452;51.938;4.624;2022-12-29T08:39:26;76393.13;;;-142.75;100.00
41632;BME280;37452;51.938;4.624;2022-12-29T08:41:52;76428.56;;;-142.75;100.00
41632;BME280;37452;51.938;4.624;2022-12-29T08:44:18;76426.59;;;-142.75;100.00
41632;BME280;37452;51.938;4.624;2022-12-29T08:46:43;76434.47;;;-142.75;100.00
41632;BME280;37452;51.938;4.624;2022-12-29T08:49:09;76448.25;;;-142.75;100.00
41632;BME280;37452;51.938;4.624;2022-12-29T08:51:35;76462.03;;;-142.75;100.00
41632;BME280;37452;51.938;4.624;2022-12-29T08:54:00;76460.06;;;-142.75;100.00
41632;BME280;37452;51.938;4.624;2022-12-29T08:56:26;76444.31;;;-142.75;100.00
41632;BME280;37452;51.938;4.624;2022-12-29T08:58:52;76452.19;;;-142.75;100.00
41632;BME280;37452;51.938;4.624;2022-12-29T09:01:18;76462.03;;;-142.75;100.00
41632;BME280;37452;51.938;4.624;2022-12-29T09:03:44;76479.75;;;-142.75;100.00
41632;BME280;37452;51.938;4.624;2022-12-29T09:06:10;76503.38;;;-142.75;100.00
41632;BME280;37452;51.938;4.624;2022-12-29T09:08:35;76487.63;;;-142.75;100.00
41632;BME280;37452;51.938;4.624;2022-12-29T09:11:19;76509.28;;;-142.75;100.00
41632;BME280;37452;51.938;4.624;2022-12-29T09:13:45;76505.34;;;-142.75;100.00
41632;BME280;37452;51.938;4.624;2022-12-29T09:16:12;76517.16;;;-142.75;100.00
41632;BME280;37452;51.938;4.624;2022-12-29T09:18:37;76519.13;;;-142.75;100.00
41632;BME280;37452;51.938;4.624;2022-12-29T09:21:04;76523.06;;;-142.75;100.00
41632;BME280;37452;51.938;4.624;2022-12-29T09:23:31;76515.19;;;-142.75;100.00
41632;BME280;37452;51.938;4.624;2022-12-29T09:25:56;76499.44;;;-142.75;100.00
41632;BME280;37452;51.938;4.624;2022-12-29T09:28:22;76507.31;;;-142.75;100.00
41632;BME280;37452;51.938;4.624;2022-12-29T09:30:48;76513.22;;;-142.75;100.00
41632;BME280;37452;51.938;4.624;2022-12-29T09:33:14;76501.41;;;-142.75;100.00
41632;BME280;37452;51.938;4.624;2022-12-29T09:35:54;76501.41;;;-142.75;100.00
41632;BME280;37452;51.938;4.624;2022-12-29T09:38:21;76499.44;;;-142.75;100.00
41632;BME280;37452;51.938;4.624;2022-12-29T09:40:52;76487.63;;;-142.75;100.00
41632;BME280;37452;51.938;4.624;2022-12-29T09:46:18;76515.19;;;-142.75;100.00
41632;BME280;37452;51.938;4.624;2022-12-29T09:48:52;76511.25;;;-142.75;100.00
41632;BME280;37452;51.938;4.624;2022-12-29T09:51:22;76507.31;;;-142.75;100.00
41632;BME280;37452;51.938;4.624;2022-12-29T09:53:57;76511.25;;;-142.75;100.00
41632;BME280;37452;51.938;4.624;2022-12-29T09:56:25;76519.13;;;-142.75;100.00
41632;BME280;37452;51.938;4.624;2022-12-29T09:58:56;76505.34;;;-142.75;100.00
41632;BME280;37452;51.938;4.624;2022-12-29T10:01:30;76515.19;;;-142.75;100.00
41632;BME280;37452;51.938;4.624;2022-12-29T10:03:59;76503.38;;;-142.75;100.00
41632;BME280;37452;51.938;4.624;2022-12-29T10:09:19;76528.97;;;-142.75;100.00
41632;BME280;37452;51.938;4.624;2022-12-29T10:12:06;76530.91;;;-142.75;100.00
41632;BME280;37452;51.938;4.624;2022-12-29T10:24:54;76517.16;;;-142.75;100.00
41632;BME280;37452;51.938;4.624;2022-12-29T10:27:21;76515.19;;;-142.75;100.00
41632;BME280;37452;51.938;4.624;2022-12-29T10:29:53;76528.97;;;-142.75;100.00
41632;BME280;37452;51.938;4.624;2022-12-29T10:34:58;76523.06;;;-142.75;100.00
41632;BME280;37452;51.938;4.624;2022-12-29T10:37:37;76515.19;;;-142.75;100.00
41632;BME280;37452;51.938;4.624;2022-12-29T10:40:27;76495.50;;;-142.75;100.00
41632;BME280;37452;51.938;4.624;2022-12-29T10:42:55;76473.84;;;-142.75;100.00
41632;BME280;37452;51.938;4.624;2022-12-29T10:45:25;76483.69;;;-142.75;100.00
41632;BME280;37452;51.938;4.624;2022-12-29T10:50:21;76507.31;;;-142.75;100.00
41632;BME280;37452;51.938;4.624;2022-12-29T10:52:47;76505.34;;;-142.75;100.00
41632;BME280;37452;51.938;4.624;2022-12-29T10:55:17;76523.06;;;-142.75;100.00
41632;BME280;37452;51.938;4.624;2022-12-29T10:57:45;76523.06;;;-142.75;100.00
41632;BME280;37452;51.938;4.624;2022-12-29T11:00:19;76542.72;;;-142.75;100.00
41632;BME280;37452;51.938;4.624;2022-12-29T11:05:41;76540.75;;;-142.75;100.00
41632;BME280;37452;51.938;4.624;2022-12-29T11:08:22;76528.97;;;-142.75;100.00
41632;BME280;37452;51.938;4.624;2022-12-29T11:11:04;76544.69;;;-142.75;100.00
41632;BME280;37452;51.938;4.624;2022-12-29T11:13:32;76528.97;;;-142.75;100.00
41632;BME280;37452;51.938;4.624;2022-12-29T11:15:57;76521.09;;;-142.75;100.00
41632;BME280;37452;51.938;4.624;2022-12-29T11:18:35;76515.19;;;-142.75;100.00
41632;BME280;37452;51.938;4.624;2022-12-29T11:21:07;76501.41;;;-142.75;100.00
41632;BME280;37452;51.938;4.624;2022-12-29T11:23:38;76503.38;;;-142.75;100.00
41632;BME280;37452;51.938;4.624;2022-12-29T11:26:14;76487.63;;;-142.75;100.00
41632;BME280;37452;51.938;4.624;2022-12-29T11:28:42;76440.38;;;-142.75;100.00
41632;BME280;37452;51.938;4.624;2022-12-29T11:31:09;76406.91;;;-142.75;100.00
41632;BME280;37452;51.938;4.624;2022-12-29T11:33:37;76393.13;;;-142.75;100.00
41632;BME280;37452;51.938;4.624;2022-12-29T11:36:10;76406.91;;;-142.75;100.00
41632;BME280;37452;51.938;4.624;2022-12-29T11:38:40;76440.38;;;-142.75;100.00
41632;BME280;37452;51.938;4.624;2022-12-29T11:41:11;76440.38;;;-142.75;100.00
41632;BME280;37452;51.938;4.624;2022-12-29T11:43:41;76438.41;;;-142.75;100.00
41632;BME280;37452;51.938;4.624;2022-12-29T11:46:16;76389.19;;;-142.75;100.00
41632;BME280;37452;51.938;4.624;2022-12-29T11:48:43;76393.13;;;-142.75;100.00
41632;BME280;37452;51.938;4.624;2022-12-29T11:51:09;76345.91;;;-142.75;100.00
41632;BME280;37452;51.938;4.624;2022-12-29T11:53:43;76377.38;;;-142.75;100.00
41632;BME280;37452;51.938;4.624;2022-12-29T11:56:15;76395.09;;;-142.75;100.00
41632;BME280;37452;51.938;4.624;2022-12-29T11:58:41;76410.84;;;-142.75;100.00
41632;BME280;37452;51.938;4.624;2022-12-29T12:01:13;76428.56;;;-142.75;100.00
41632;BME280;37452;51.938;4.624;2022-12-29T12:06:20;76408.88;;;-142.75;100.00
41632;BME280;37452;51.938;4.624;2022-12-29T12:08:54;76393.13;;;-142.75;100.00
41632;BME280;37452;51.938;4.624;2022-12-29T12:11:31;76418.72;;;-142.75;100.00
41632;BME280;37452;51.938;4.624;2022-12-29T12:14:14;76420.69;;;-142.75;100.00
41632;BME280;37452;51.938;4.624;2022-12-29T12:16:45;76448.25;;;-142.75;100.00
41632;BME280;37452;51.938;4.624;2022-12-29T12:21:43;76444.31;;;-142.75;100.00
41632;BME280;37452;51.938;4.624;2022-12-29T12:27:02;76418.72;;;-142.75;100.00
41632;BME280;37452;51.938;4.624;2022-12-29T12:29:39;76397.06;;;-142.75;100.00
41632;BME280;37452;51.938;4.624;2022-12-29T12:32:22;76391.16;;;-142.75;100.00
41632;BME280;37452;51.938;4.624;2022-12-29T12:34:50;76393.13;;;-142.75;100.00
41632;BME280;37452;51.938;4.624;2022-12-29T12:43:24;76430.53;;;-142.75;100.00
41632;BME280;37452;51.938;4.624;2022-12-29T12:58:16;76471.88;;;-142.75;100.00
41632;BME280;37452;51.938;4.624;2022-12-29T13:16:57;76477.78;;;-142.75;100.00
41632;BME280;37452;51.938;4.624;2022-12-29T13:19:49;76483.69;;;-142.75;100.00
41632;BME280;37452;51.938;4.624;2022-12-29T13:22:44;76483.69;;;-142.75;100.00
41632;BME280;37452;51.938;4.624;2022-12-29T13:25:35;76528.97;;;-142.75;100.00
41632;BME280;37452;51.938;4.624;2022-12-29T13:28:19;76538.78;;;-142.75;100.00
41632;BME280;37452;51.938;4.624;2022-12-29T13:36:24;76647.06;;;-142.75;100.00
41632;BME280;37452;51.938;4.624;2022-12-29T13:39:02;76658.88;;;-142.75;100.00
41632;BME280;37452;51.938;4.624;2022-12-29T13:41:37;76668.72;;;-142.75;100.00
41632;BME280;37452;51.938;4.624;2022-12-29T13:44:05;76676.59;;;-142.75;100.00
41632;BME280;37452;51.938;4.624;2022-12-29T13:46:37;76684.47;;;-142.75;100.00
41632;BME280;37452;51.938;4.624;2022-12-29T13:49:17;76676.59;;;-142.75;100.00
41632;BME280;37452;51.938;4.624;2022-12-29T13:51:49;76696.28;;;-142.75;100.00
41632;BME280;37452;51.938;4.624;2022-12-29T14:02:03;76656.91;;;-142.75;100.00
41632;BME280;37452;51.938;4.624;2022-12-29T14:04:34;76676.59;;;-142.75;100.00
41632;BME280;37452;51.938;4.624;2022-12-29T14:07:12;76664.78;;;-142.75;100.00
41632;BME280;37452;51.938;4.624;2022-12-29T14:09:41;76660.84;;;-142.75;100.00
41632;BME280;37452;51.938;4.624;2022-12-29T14:12:38;76660.84;;;-142.75;100.00
41632;BME280;37452;51.938;4.624;2022-12-29T14:15:15;76664.78;;;-142.75;100.00
41632;BME280;37452;51.938;4.624;2022-12-29T14:18:02;76678.56;;;-142.75;100.00
41632;BME280;37452;51.938;4.624;2022-12-29T14:20:29;76692.34;;;-142.75;100.00
41632;BME280;37452;51.938;4.624;2022-12-29T14:28:49;76692.34;;;-142.75;100.00
41632;BME280;37452;51.938;4.624;2022-12-29T14:33:41;76686.44;;;-142.75;100.00
41632;BME280;37452;51.938;4.624;2022-12-29T14:36:40;76692.34;;;-142.75;100.00
41632;BME280;37452;51.938;4.624;2022-12-29T14:39:32;76682.50;;;-142.75;100.00
41632;BME280;37452;51.938;4.624;2022-12-29T14:44:34;76688.41;;;-142.75;100.00
41632;BME280;37452;51.938;4.624;2022-12-29T14:47:36;76676.59;;;-142.75;100.00
41632;BME280;37452;51.938;4.624;2022-12-29T14:52:59;76688.41;;;-142.75;100.00
41632;BME280;37452;51.938;4.624;2022-12-29T14:55:44;76692.34;;;-142.75;100.00